createdAt,value
2018-07-14T00:00:54.622Z,25.76
2018-07-14T00:02:04.349Z,25.69
2018-07-14T00:03:13.516Z,25.7
2018-07-14T00:04:22.415Z,25.73
2018-07-14T00:05:31.821Z,25.69
2018-07-14T00:06:41.489Z,25.75
2018-07-14T00:07:51.155Z,25.69
2018-07-14T00:09:00.563Z,25.67
2018-07-14T00:10:10.061Z,25.7
2018-07-14T00:11:19.483Z,25.67
2018-07-14T00:12:28.377Z,25.67
2018-07-14T00:13:38.181Z,25.67
2018-07-14T00:14:47.066Z,25.64
2018-07-14T00:15:56.223Z,25.6
2018-07-14T00:17:05.118Z,25.62
2018-07-14T00:18:14.797Z,25.69
2018-07-14T00:19:23.939Z,25.7
2018-07-14T00:20:33.361Z,25.65
2018-07-14T00:21:42.813Z,25.64
2018-07-14T00:22:52.280Z,25.64
2018-07-14T00:24:01.688Z,25.69
2018-07-14T00:25:10.995Z,25.67
2018-07-14T00:26:20.410Z,25.62
2018-07-14T00:27:29.805Z,25.62
2018-07-14T00:28:39.467Z,25.65
2018-07-14T00:29:48.894Z,25.65
2018-07-14T00:30:58.807Z,25.69
2018-07-14T00:32:08.498Z,25.62
2018-07-14T00:33:18.430Z,25.7
2018-07-14T00:34:28.360Z,25.69
2018-07-14T00:35:37.513Z,25.67
2018-07-14T00:36:46.667Z,25.64
2018-07-14T00:37:56.079Z,25.69
2018-07-14T00:39:05.535Z,25.7
2018-07-14T00:40:14.654Z,25.64
2018-07-14T00:41:23.829Z,25.67
2018-07-14T00:42:33.502Z,25.67
2018-07-14T00:43:43.436Z,25.7
2018-07-14T00:44:52.837Z,25.67
2018-07-14T00:46:01.997Z,25.69
2018-07-14T00:47:10.895Z,25.67
2018-07-14T00:48:20.049Z,25.72
2018-07-14T00:49:29.197Z,25.73
2018-07-14T00:50:38.615Z,25.72
2018-07-14T00:51:48.028Z,25.7
2018-07-14T00:52:57.714Z,25.72
2018-07-14T00:54:07.134Z,25.69
2018-07-14T00:55:16.299Z,25.7
2018-07-14T00:56:25.467Z,25.67
2018-07-14T00:57:34.359Z,25.6
2018-07-14T00:58:43.262Z,25.67
2018-07-14T00:59:52.436Z,25.6
2018-07-14T01:01:01.593Z,25.62
2018-07-14T01:02:10.737Z,25.64
2018-07-14T01:03:19.652Z,25.65
2018-07-14T01:04:29.313Z,25.65
2018-07-14T01:05:38.989Z,25.65
2018-07-14T01:06:48.151Z,25.62
2018-07-14T01:07:57.851Z,25.55
2018-07-14T01:09:07.531Z,25.57
2018-07-14T01:10:16.420Z,25.57
2018-07-14T01:11:25.311Z,25.58
2018-07-14T01:12:34.470Z,25.57
2018-07-14T01:13:43.873Z,25.62
2018-07-14T01:14:53.785Z,25.6
2018-07-14T01:16:02.945Z,25.58
2018-07-14T01:17:12.127Z,25.52
2018-07-14T01:18:21.870Z,25.58
2018-07-14T01:19:31.288Z,25.52
2018-07-14T01:20:40.203Z,25.55
2018-07-14T01:21:49.162Z,25.46
2018-07-14T01:22:58.314Z,25.47
2018-07-14T01:24:07.737Z,25.45
2018-07-14T01:25:16.916Z,25.5
2018-07-14T01:26:26.579Z,25.55
2018-07-14T01:27:36.269Z,25.58
2018-07-14T01:28:45.688Z,25.54
2018-07-14T01:29:55.350Z,25.46
2018-07-14T01:31:04.253Z,25.51
2018-07-14T01:32:13.407Z,25.61
2018-07-14T01:33:22.820Z,25.51
2018-07-14T01:34:32.274Z,25.51
2018-07-14T01:35:41.318Z,25.51
2018-07-14T01:36:50.460Z,25.52
2018-07-14T01:37:59.888Z,25.51
2018-07-14T01:39:09.549Z,25.45
2018-07-14T01:40:18.957Z,25.45
2018-07-14T01:41:28.365Z,25.47
2018-07-14T01:42:37.774Z,25.38
2018-07-14T01:43:47.186Z,25.5
2018-07-14T01:44:56.339Z,25.5
2018-07-14T01:46:05.500Z,25.51
2018-07-14T01:47:14.651Z,25.46
2018-07-14T01:48:24.344Z,25.45
2018-07-14T01:49:34.036Z,25.43
2018-07-14T01:50:43.448Z,25.51
2018-07-14T01:51:52.621Z,25.4
2018-07-14T01:53:02.086Z,25.35
2018-07-14T01:54:11.767Z,25.35
2018-07-14T01:55:21.185Z,25.39
2018-07-14T01:56:29.845Z,25.33
2018-07-14T01:57:38.991Z,25.42
2018-07-14T01:58:48.419Z,25.4
2018-07-14T01:59:57.842Z,25.42
2018-07-14T02:01:06.992Z,25.38
2018-07-14T02:02:16.908Z,25.36
2018-07-14T02:03:26.316Z,25.38
2018-07-14T02:04:36.030Z,25.35
2018-07-14T02:05:45.690Z,25.3
2018-07-14T02:06:55.614Z,25.39
2018-07-14T02:08:05.019Z,25.36
2018-07-14T02:09:14.445Z,25.36
2018-07-14T02:10:23.646Z,25.35
2018-07-14T02:11:33.062Z,25.28
2018-07-14T02:12:42.245Z,25.3
2018-07-14T02:13:51.670Z,25.3
2018-07-14T02:15:00.849Z,25.36
2018-07-14T02:16:10.322Z,25.25
2018-07-14T02:17:19.991Z,25.36
2018-07-14T02:18:29.405Z,25.3
2018-07-14T02:19:39.093Z,25.33
2018-07-14T02:20:48.772Z,25.39
2018-07-14T02:21:58.178Z,25.28
2018-07-14T02:23:07.842Z,25.3
2018-07-14T02:24:16.792Z,25.35
2018-07-14T02:25:26.461Z,25.35
2018-07-14T02:26:35.359Z,25.39
2018-07-14T02:27:45.050Z,25.39
2018-07-14T02:28:54.497Z,25.38
2018-07-14T02:30:03.402Z,25.42
2018-07-14T02:31:13.093Z,25.35
2018-07-14T02:32:22.520Z,25.4
2018-07-14T02:33:31.934Z,25.46
2018-07-14T02:34:41.870Z,25.43
2018-07-14T02:35:51.309Z,25.42
2018-07-14T02:37:00.530Z,25.42
2018-07-14T02:38:10.214Z,25.4
2018-07-14T02:39:20.172Z,25.42
2018-07-14T02:40:29.855Z,25.42
2018-07-14T02:41:39.807Z,25.36
2018-07-14T02:42:49.488Z,25.39
2018-07-14T02:43:59.425Z,25.38
2018-07-14T02:45:09.112Z,25.38
2018-07-14T02:46:18.797Z,25.39
2018-07-14T02:47:28.470Z,25.28
2018-07-14T02:48:38.403Z,25.39
2018-07-14T02:49:47.812Z,25.39
2018-07-14T02:50:57.141Z,25.36
2018-07-14T02:52:06.301Z,25.35
2018-07-14T02:53:15.744Z,25.35
2018-07-14T02:54:25.420Z,25.35
2018-07-14T02:55:34.844Z,25.28
2018-07-14T02:56:44.519Z,25.4
2018-07-14T02:57:53.429Z,25.27
2018-07-14T02:59:02.573Z,25.33
2018-07-14T03:00:12.516Z,25.27
2018-07-14T03:01:22.440Z,25.28
2018-07-14T03:02:31.342Z,25.3
2018-07-14T03:03:41.019Z,25.36
2018-07-14T03:04:50.959Z,25.24
2018-07-14T03:06:00.638Z,25.33
2018-07-14T03:07:10.563Z,25.33
2018-07-14T03:08:20.221Z,25.2
2018-07-14T03:09:30.191Z,25.24
2018-07-14T03:10:39.387Z,25.21
2018-07-14T03:11:49.079Z,25.21
2018-07-14T03:12:59.442Z,25.21
2018-07-14T03:14:08.936Z,25.21
2018-07-14T03:15:18.340Z,25.21
2018-07-14T03:16:28.270Z,25.25
2018-07-14T03:17:37.677Z,25.23
2018-07-14T03:18:47.372Z,25.15
2018-07-14T03:19:56.267Z,25.24
2018-07-14T03:21:05.927Z,25.27
2018-07-14T03:22:15.607Z,25.28
2018-07-14T03:23:25.036Z,25.25
2018-07-14T03:24:34.449Z,25.24
2018-07-14T03:25:43.624Z,25.24
2018-07-14T03:26:53.061Z,25.28
2018-07-14T03:28:02.471Z,25.24
2018-07-14T03:29:11.673Z,25.21
2018-07-14T03:30:21.366Z,25.35
2018-07-14T03:31:31.037Z,25.21
2018-07-14T03:32:40.717Z,25.3
2018-07-14T03:33:50.390Z,25.23
2018-07-14T03:34:59.790Z,25.28
2018-07-14T03:36:09.465Z,25.25
2018-07-14T03:37:18.884Z,25.27
2018-07-14T03:38:28.291Z,25.23
2018-07-14T03:39:37.966Z,25.27
2018-07-14T03:40:47.162Z,25.23
2018-07-14T03:41:56.691Z,25.32
2018-07-14T03:43:06.178Z,25.2
2018-07-14T03:44:15.602Z,25.23
2018-07-14T03:45:25.027Z,25.17
2018-07-14T03:46:34.438Z,25.27
2018-07-14T03:47:44.131Z,25.17
2018-07-14T03:48:53.289Z,25.2
2018-07-14T03:50:02.252Z,25.2
2018-07-14T03:51:11.406Z,25.18
2018-07-14T03:52:20.314Z,25.2
2018-07-14T03:53:29.723Z,25.17
2018-07-14T03:54:39.149Z,25.17
2018-07-14T03:55:48.548Z,25.17
2018-07-14T03:56:58.290Z,25.13
2018-07-14T03:58:07.663Z,25.13
2018-07-14T03:59:17.087Z,25.13
2018-07-14T04:00:26.527Z,25.15
2018-07-14T04:01:36.205Z,25.15
2018-07-14T04:02:45.863Z,25.18
2018-07-14T04:03:55.802Z,25.13
2018-07-14T04:05:05.226Z,25.09
2018-07-14T04:06:14.653Z,25.09
2018-07-14T04:07:23.826Z,25.08
2018-07-14T04:08:33.001Z,25.09
2018-07-14T04:09:42.168Z,25.09
2018-07-14T04:10:51.313Z,25.09
2018-07-14T04:12:00.467Z,25.1
2018-07-14T04:13:09.883Z,25.15
2018-07-14T04:14:19.085Z,25.17
2018-07-14T04:15:28.227Z,25.14
2018-07-14T04:16:37.383Z,25.14
2018-07-14T04:17:47.048Z,25.08
2018-07-14T04:18:56.465Z,25.14
2018-07-14T04:20:05.894Z,25.18
2018-07-14T04:21:14.780Z,25.09
2018-07-14T04:22:24.451Z,25.17
2018-07-14T04:23:34.385Z,25.14
2018-07-14T04:24:43.801Z,25.18
2018-07-14T04:25:53.205Z,25.08
2018-07-14T04:27:02.879Z,25.05
2018-07-14T04:28:12.299Z,25.13
2018-07-14T04:29:21.210Z,25.13
2018-07-14T04:30:30.112Z,25.08
2018-07-14T04:31:39.800Z,25.13
2018-07-14T04:32:48.957Z,25.09
2018-07-14T04:33:58.101Z,25.06
2018-07-14T04:35:07.245Z,25.13
2018-07-14T04:36:16.913Z,25.03
2018-07-14T04:37:25.560Z,25.03
2018-07-14T04:38:35.254Z,25.06
2018-07-14T04:39:44.423Z,25.14
2018-07-14T04:40:54.076Z,25.08
2018-07-14T04:42:03.258Z,25.06
2018-07-14T04:43:12.397Z,25.09
2018-07-14T04:44:21.854Z,25.05
2018-07-14T04:45:31.009Z,25
2018-07-14T04:46:40.415Z,25
2018-07-14T04:47:49.573Z,25.06
2018-07-14T04:48:58.997Z,25.02
2018-07-14T04:50:08.659Z,25.03
2018-07-14T04:51:18.081Z,25.08
2018-07-14T04:52:27.489Z,25.1
2018-07-14T04:53:36.632Z,25.08
2018-07-14T04:54:45.780Z,25.06
2018-07-14T04:55:54.988Z,25.08
2018-07-14T04:57:04.407Z,25.06
2018-07-14T04:58:13.579Z,25.1
2018-07-14T04:59:23.495Z,25.08
2018-07-14T05:00:32.673Z,25.08
2018-07-14T05:01:42.092Z,25.1
2018-07-14T05:02:51.503Z,25.13
2018-07-14T05:04:00.685Z,25.09
2018-07-14T05:05:09.823Z,25.13
2018-07-14T05:06:19.352Z,25.1
2018-07-14T05:07:28.901Z,25.13
2018-07-14T05:08:37.799Z,25.14
2018-07-14T05:09:47.208Z,25.1
2018-07-14T05:10:56.116Z,25.17
2018-07-14T05:12:06.040Z,25.1
2018-07-14T05:13:15.194Z,25.18
2018-07-14T05:14:24.601Z,25.13
2018-07-14T05:15:33.831Z,25.09
2018-07-14T05:16:43.531Z,25.08
2018-07-14T05:17:52.958Z,25.05
2018-07-14T05:19:02.906Z,25.1
2018-07-14T05:20:12.661Z,25.08
2018-07-14T05:21:22.357Z,25.08
2018-07-14T05:22:31.589Z,25.09
2018-07-14T05:23:41.266Z,25.15
2018-07-14T05:24:51.394Z,25.06
2018-07-14T05:26:01.089Z,25.08
2018-07-14T05:27:10.765Z,25.05
2018-07-14T05:28:19.665Z,25.13
2018-07-14T05:29:29.602Z,25.08
2018-07-14T05:30:39.276Z,25.08
2018-07-14T05:31:48.433Z,25.13
2018-07-14T05:32:58.108Z,25.05
2018-07-14T05:34:07.793Z,25.13
2018-07-14T05:35:17.477Z,25.14
2018-07-14T05:36:27.136Z,25.15
2018-07-14T05:37:36.291Z,25.09
2018-07-14T05:38:45.695Z,25.08
2018-07-14T05:39:55.369Z,25.09
2018-07-14T05:41:04.807Z,25.13
2018-07-14T05:42:14.230Z,25.05
2018-07-14T05:43:23.656Z,25.06
2018-07-14T05:44:33.073Z,25.1
2018-07-14T05:45:42.497Z,25.08
2018-07-14T05:46:52.430Z,25.02
2018-07-14T05:48:01.857Z,25.09
2018-07-14T05:49:11.539Z,25.05
2018-07-14T05:50:20.985Z,25.08
2018-07-14T05:51:29.897Z,25.09
2018-07-14T05:52:39.579Z,25.13
2018-07-14T05:53:48.737Z,25.09
2018-07-14T05:54:58.415Z,25.09
2018-07-14T05:56:07.309Z,25.13
2018-07-14T05:57:16.719Z,25.14
2018-07-14T05:58:26.433Z,25.1
2018-07-14T05:59:35.370Z,25.05
2018-07-14T06:00:45.093Z,25.09
2018-07-14T06:01:54.236Z,25.15
2018-07-14T06:03:03.390Z,25.14
2018-07-14T06:04:12.811Z,25.13
2018-07-14T06:05:22.218Z,25.06
2018-07-14T06:06:31.392Z,25.08
2018-07-14T06:07:40.627Z,25.1
2018-07-14T06:08:49.617Z,25.09
2018-07-14T06:09:59.303Z,25.15
2018-07-14T06:11:08.465Z,25.13
2018-07-14T06:12:17.878Z,25.09
2018-07-14T06:13:26.788Z,25.2
2018-07-14T06:14:35.700Z,25.13
2018-07-14T06:15:45.378Z,25.17
2018-07-14T06:16:54.541Z,25.14
2018-07-14T06:18:03.961Z,25.13
2018-07-14T06:19:13.115Z,25.13
2018-07-14T06:20:22.523Z,25.14
2018-07-14T06:21:32.174Z,25.17
2018-07-14T06:22:41.579Z,25.2
2018-07-14T06:23:50.732Z,25.1
2018-07-14T06:25:00.698Z,25.14
2018-07-14T06:26:10.120Z,25.14
2018-07-14T06:27:19.551Z,25.18
2018-07-14T06:28:28.716Z,25.18
2018-07-14T06:29:38.121Z,25.14
2018-07-14T06:30:46.751Z,25.18
2018-07-14T06:31:56.719Z,25.17
2018-07-14T06:33:06.301Z,25.2
2018-07-14T06:34:15.196Z,25.25
2018-07-14T06:35:23.829Z,25.21
2018-07-14T06:36:33.230Z,25.2
2018-07-14T06:37:42.630Z,25.18
2018-07-14T06:38:52.035Z,25.21
2018-07-14T06:40:01.463Z,25.28
2018-07-14T06:41:10.633Z,25.17
2018-07-14T06:42:20.063Z,25.18
2018-07-14T06:43:28.953Z,25.21
2018-07-14T06:44:38.152Z,25.23
2018-07-14T06:45:48.038Z,25.36
2018-07-14T06:46:57.712Z,25.24
2018-07-14T06:48:07.157Z,25.28
2018-07-14T06:49:16.571Z,25.24
2018-07-14T06:50:26.493Z,25.28
2018-07-14T06:51:36.173Z,25.28
2018-07-14T06:52:45.577Z,25.36
2018-07-14T06:53:54.999Z,25.39
2018-07-14T06:55:04.407Z,25.32
2018-07-14T06:56:13.330Z,25.3
2018-07-14T06:57:23.030Z,25.3
2018-07-14T06:58:32.689Z,25.39
2018-07-14T06:59:42.359Z,25.33
2018-07-14T07:00:51.528Z,25.25
2018-07-14T07:02:00.945Z,25.28
2018-07-14T07:03:10.099Z,25.35
2018-07-14T07:04:19.828Z,25.38
2018-07-14T07:05:29.258Z,25.36
2018-07-14T07:06:38.738Z,25.35
2018-07-14T07:07:48.406Z,25.33
2018-07-14T07:08:58.087Z,25.38
2018-07-14T07:10:07.517Z,25.42
2018-07-14T07:11:17.433Z,25.38
2018-07-14T07:12:26.603Z,25.38
2018-07-14T07:13:36.362Z,25.36
2018-07-14T07:14:45.811Z,25.33
2018-07-14T07:15:55.213Z,25.38
2018-07-14T07:17:05.149Z,25.39
2018-07-14T07:18:14.826Z,25.42
2018-07-14T07:19:23.972Z,25.36
2018-07-14T07:20:33.372Z,25.4
2018-07-14T07:21:42.535Z,25.39
2018-07-14T07:22:51.956Z,25.39
2018-07-14T07:24:01.111Z,25.38
2018-07-14T07:25:10.792Z,25.33
2018-07-14T07:26:19.989Z,25.36
2018-07-14T07:27:29.673Z,25.38
2018-07-14T07:28:38.853Z,25.38
2018-07-14T07:29:48.919Z,25.38
2018-07-14T07:30:58.326Z,25.46
2018-07-14T07:32:07.469Z,25.47
2018-07-14T07:33:17.152Z,25.47
2018-07-14T07:34:26.109Z,25.35
2018-07-14T07:35:35.852Z,25.47
2018-07-14T07:36:45.355Z,25.46
2018-07-14T07:37:54.810Z,25.51
2018-07-14T07:39:04.015Z,25.55
2018-07-14T07:40:13.687Z,25.51
2018-07-14T07:41:23.105Z,25.54
2018-07-14T07:42:32.340Z,25.51
2018-07-14T07:43:41.529Z,25.5
2018-07-14T07:44:51.188Z,25.5
2018-07-14T07:46:00.346Z,25.55
2018-07-14T07:47:09.495Z,25.54
2018-07-14T07:48:18.679Z,25.6
2018-07-14T07:49:28.094Z,25.46
2018-07-14T07:50:37.507Z,25.46
2018-07-14T07:51:47.440Z,25.54
2018-07-14T07:52:56.869Z,25.45
2018-07-14T07:54:06.550Z,25.54
2018-07-14T07:55:15.709Z,25.52
2018-07-14T07:56:25.149Z,25.57
2018-07-14T07:57:34.559Z,25.55
2018-07-14T07:58:43.989Z,25.61
2018-07-14T07:59:53.659Z,25.64
2018-07-14T08:01:02.563Z,25.57
2018-07-14T08:02:11.736Z,25.57
2018-07-14T08:03:20.902Z,25.61
2018-07-14T08:04:30.577Z,25.58
2018-07-14T08:05:39.985Z,25.69
2018-07-14T08:06:49.652Z,25.57
2018-07-14T08:07:58.800Z,25.61
2018-07-14T08:09:08.215Z,25.65
2018-07-14T08:10:17.390Z,25.67
2018-07-14T08:11:26.309Z,25.65
2018-07-14T08:12:35.730Z,25.62
2018-07-14T08:13:45.656Z,25.67
2018-07-14T08:14:55.074Z,25.61
2018-07-14T08:16:05.184Z,25.65
2018-07-14T08:17:14.419Z,25.61
2018-07-14T08:18:24.102Z,25.67
2018-07-14T08:19:32.996Z,25.65
2018-07-14T08:20:42.669Z,25.67
2018-07-14T08:21:52.596Z,25.62
2018-07-14T08:23:02.089Z,25.6
2018-07-14T08:24:11.795Z,25.69
2018-07-14T08:25:20.723Z,25.64
2018-07-14T08:26:30.133Z,25.64
2018-07-14T08:27:39.739Z,25.73
2018-07-14T08:28:48.648Z,25.72
2018-07-14T08:29:58.071Z,25.7
2018-07-14T08:31:07.902Z,25.7
2018-07-14T08:32:17.656Z,25.69
2018-07-14T08:33:27.471Z,25.65
2018-07-14T08:34:36.634Z,25.7
2018-07-14T08:35:45.794Z,25.7
2018-07-14T08:36:55.489Z,25.75
2018-07-14T08:38:05.116Z,25.73
2018-07-14T08:39:15.082Z,25.7
2018-07-14T08:40:25.011Z,25.77
2018-07-14T08:41:34.948Z,25.7
2018-07-14T08:42:44.621Z,25.72
2018-07-14T08:43:54.282Z,25.67
2018-07-14T08:45:04.049Z,25.73
2018-07-14T08:46:13.457Z,25.8
2018-07-14T08:47:23.395Z,25.76
2018-07-14T08:48:32.806Z,25.82
2018-07-14T08:49:41.967Z,25.79
2018-07-14T08:50:51.632Z,25.77
2018-07-14T08:52:00.785Z,25.72
2018-07-14T08:53:09.939Z,25.76
2018-07-14T08:54:19.091Z,25.77
2018-07-14T08:55:28.247Z,25.77
2018-07-14T08:56:37.150Z,25.77
2018-07-14T08:57:46.581Z,25.77
2018-07-14T08:58:55.982Z,25.82
2018-07-14T09:00:05.671Z,25.79
2018-07-14T09:01:15.095Z,25.8
2018-07-14T09:02:24.068Z,25.82
2018-07-14T09:03:33.914Z,25.77
2018-07-14T09:04:43.703Z,25.79
2018-07-14T09:05:53.622Z,25.82
2018-07-14T09:07:03.283Z,25.82
2018-07-14T09:08:12.421Z,25.77
2018-07-14T09:09:21.594Z,25.8
2018-07-14T09:10:31.278Z,25.85
2018-07-14T09:11:40.702Z,25.77
2018-07-14T09:12:50.135Z,25.82
2018-07-14T09:13:59.817Z,25.79
2018-07-14T09:15:09.799Z,25.8
2018-07-14T09:16:18.985Z,25.85
2018-07-14T09:17:29.318Z,25.8
2018-07-14T09:18:39.701Z,25.87
2018-07-14T09:19:48.908Z,25.85
2018-07-14T09:20:57.827Z,25.8
2018-07-14T09:22:06.993Z,25.8
2018-07-14T09:23:16.171Z,25.88
2018-07-14T09:24:26.085Z,25.87
2018-07-14T09:25:35.257Z,25.79
2018-07-14T09:26:44.670Z,25.88
2018-07-14T09:27:53.828Z,25.91
2018-07-14T09:29:03.403Z,25.85
2018-07-14T09:30:12.552Z,25.85
2018-07-14T09:31:22.207Z,25.79
2018-07-14T09:32:32.116Z,25.82
2018-07-14T09:33:41.341Z,25.9
2018-07-14T09:34:50.799Z,25.91
2018-07-14T09:36:00.469Z,25.9
2018-07-14T09:37:09.898Z,25.88
2018-07-14T09:38:19.575Z,25.85
2018-07-14T09:39:29.252Z,25.87
2018-07-14T09:40:38.410Z,25.87
2018-07-14T09:41:48.079Z,25.95
2018-07-14T09:42:57.514Z,25.83
2018-07-14T09:44:07.408Z,25.91
2018-07-14T09:45:16.925Z,25.91
2018-07-14T09:46:26.377Z,25.91
2018-07-14T09:47:35.805Z,25.95
2018-07-14T09:48:45.624Z,25.95
2018-07-14T09:49:54.833Z,25.91
2018-07-14T09:51:03.754Z,25.9
2018-07-14T09:52:13.187Z,25.88
2018-07-14T09:53:22.892Z,25.94
2018-07-14T09:54:32.114Z,25.9
2018-07-14T09:55:40.768Z,25.91
2018-07-14T09:56:50.182Z,25.91
2018-07-14T09:57:59.603Z,25.94
2018-07-14T09:59:08.803Z,25.9
2018-07-14T10:00:18.485Z,25.9
2018-07-14T10:01:27.886Z,25.87
2018-07-14T10:02:37.310Z,25.95
2018-07-14T10:03:46.727Z,25.98
2018-07-14T10:04:56.179Z,25.94
2018-07-14T10:06:06.286Z,25.95
2018-07-14T10:07:16.772Z,25.91
2018-07-14T10:08:26.456Z,25.97
2018-07-14T10:09:35.349Z,25.94
2018-07-14T10:10:44.802Z,25.94
2018-07-14T10:11:54.209Z,25.97
2018-07-14T10:13:03.389Z,25.97
2018-07-14T10:14:13.493Z,25.97
2018-07-14T10:15:23.030Z,25.94
2018-07-14T10:16:31.707Z,25.95
2018-07-14T10:17:41.500Z,25.97
2018-07-14T10:18:51.038Z,25.98
2018-07-14T10:20:00.520Z,25.97
2018-07-14T10:21:10.454Z,25.95
2018-07-14T10:22:19.653Z,25.97
2018-07-14T10:23:30.104Z,25.95
2018-07-14T10:24:39.791Z,25.98
2018-07-14T10:25:50.028Z,25.92
2018-07-14T10:26:58.881Z,26.01
2018-07-14T10:28:08.307Z,26.05
2018-07-14T10:29:17.557Z,25.92
2018-07-14T10:30:26.983Z,25.94
2018-07-14T10:31:36.389Z,26.06
2018-07-14T10:32:45.558Z,26.01
2018-07-14T10:33:55.698Z,25.98
2018-07-14T10:35:05.314Z,25.97
2018-07-14T10:36:14.988Z,25.97
2018-07-14T10:37:24.671Z,25.97
2018-07-14T10:38:34.383Z,25.98
2018-07-14T10:39:43.614Z,25.98
2018-07-14T10:40:52.510Z,26.02
2018-07-14T10:42:02.292Z,25.97
2018-07-14T10:43:12.128Z,25.98
2018-07-14T10:44:21.532Z,26.05
2018-07-14T10:45:30.676Z,26.02
2018-07-14T10:46:40.729Z,25.99
2018-07-14T10:47:49.917Z,26.07
2018-07-14T10:48:59.572Z,25.97
2018-07-14T10:50:08.996Z,25.98
2018-07-14T10:51:18.481Z,26.12
2018-07-14T10:52:28.441Z,26.02
2018-07-14T10:53:37.849Z,26.06
2018-07-14T10:54:47.004Z,26.02
2018-07-14T10:55:56.409Z,26.01
2018-07-14T10:57:05.572Z,26.05
2018-07-14T10:58:15.598Z,25.98
2018-07-14T10:59:24.865Z,25.94
2018-07-14T11:00:34.284Z,26.09
2018-07-14T11:01:43.708Z,25.97
2018-07-14T11:02:53.146Z,25.97
2018-07-14T11:04:02.309Z,26.01
2018-07-14T11:05:11.722Z,26.02
2018-07-14T11:06:21.140Z,25.97
2018-07-14T11:07:30.549Z,25.92
2018-07-14T11:08:39.709Z,25.97
2018-07-14T11:09:49.667Z,25.97
2018-07-14T11:10:59.361Z,25.99
2018-07-14T11:12:08.944Z,25.98
2018-07-14T11:13:18.741Z,25.97
2018-07-14T11:14:27.403Z,26.02
2018-07-14T11:15:36.814Z,26.02
2018-07-14T11:16:46.499Z,25.97
2018-07-14T11:17:56.677Z,26.05
2018-07-14T11:19:05.578Z,25.94
2018-07-14T11:20:14.997Z,25.98
2018-07-14T11:21:23.962Z,25.98
2018-07-14T11:22:33.891Z,25.97
2018-07-14T11:23:43.130Z,25.95
2018-07-14T11:24:53.163Z,26.09
2018-07-14T11:26:02.072Z,25.97
2018-07-14T11:27:11.054Z,25.95
2018-07-14T11:28:20.745Z,25.97
2018-07-14T11:29:30.153Z,25.95
2018-07-14T11:30:39.058Z,26.02
2018-07-14T11:31:48.478Z,26.05
2018-07-14T11:32:57.647Z,25.97
2018-07-14T11:34:07.070Z,26.01
2018-07-14T11:35:16.217Z,25.98
2018-07-14T11:36:25.363Z,26.05
2018-07-14T11:37:34.365Z,25.95
2018-07-14T11:38:43.874Z,25.97
2018-07-14T11:39:53.560Z,25.97
2018-07-14T11:41:02.455Z,25.97
2018-07-14T11:42:12.085Z,25.95
2018-07-14T11:43:22.107Z,25.91
2018-07-14T11:44:31.252Z,25.99
2018-07-14T11:45:40.908Z,26.02
2018-07-14T11:46:50.315Z,25.97
2018-07-14T11:48:00.069Z,25.97
2018-07-14T11:49:09.878Z,25.97
2018-07-14T11:50:19.039Z,26.05
2018-07-14T11:51:29.164Z,25.97
2018-07-14T11:52:38.319Z,25.97
2018-07-14T11:53:47.750Z,26.02
2018-07-14T11:54:56.667Z,26.02
2018-07-14T11:56:06.348Z,26.02
2018-07-14T11:57:15.775Z,25.99
2018-07-14T11:58:24.675Z,26.01
2018-07-14T11:59:33.839Z,26.09
2018-07-14T12:00:43.011Z,26.02
2018-07-14T12:01:52.473Z,25.98
2018-07-14T12:03:02.284Z,25.99
2018-07-14T12:04:11.965Z,26.05
2018-07-14T12:05:21.393Z,25.97
2018-07-14T12:06:30.809Z,26.09
2018-07-14T12:07:40.495Z,26.01
2018-07-14T12:08:49.938Z,26.12
2018-07-14T12:09:59.862Z,26.1
2018-07-14T12:11:09.031Z,25.98
2018-07-14T12:12:18.712Z,26.1
2018-07-14T12:13:28.269Z,26.02
2018-07-14T12:14:37.829Z,25.98
2018-07-14T12:15:47.508Z,25.95
2018-07-14T12:16:56.658Z,26.15
2018-07-14T12:18:06.339Z,26.12
2018-07-14T12:19:15.278Z,26.13
2018-07-14T12:20:25.225Z,26.07
2018-07-14T12:21:34.395Z,26.09
2018-07-14T12:22:43.812Z,26.02
2018-07-14T12:23:53.244Z,26.09
2018-07-14T12:25:02.162Z,26.09
2018-07-14T12:26:11.627Z,26.12
2018-07-14T12:27:20.873Z,26.09
2018-07-14T12:28:30.549Z,26.12
2018-07-14T12:29:40.041Z,26.12
2018-07-14T12:30:49.216Z,26.07
2018-07-14T12:31:58.371Z,26.06
2018-07-14T12:33:07.535Z,26.13
2018-07-14T12:34:16.974Z,26.13
2018-07-14T12:35:26.647Z,26.12
2018-07-14T12:36:36.425Z,26.1
2018-07-14T12:37:46.025Z,26.2
2018-07-14T12:38:54.929Z,26.09
2018-07-14T12:40:03.845Z,26.25
2018-07-14T12:41:13.280Z,26.17
2018-07-14T12:42:23.557Z,26.09
2018-07-14T12:43:33.817Z,26.09
2018-07-14T12:44:43.227Z,26.28
2018-07-14T12:45:52.648Z,26.23
2018-07-14T12:47:02.071Z,26.17
2018-07-14T12:48:11.943Z,26.18
2018-07-14T12:49:21.835Z,26.23
2018-07-14T12:50:31.540Z,26.28
2018-07-14T12:51:41.184Z,26.25
2018-07-14T12:52:50.927Z,26.26
2018-07-14T12:54:01.961Z,26.32
2018-07-14T12:55:12.156Z,26.29
2018-07-14T12:56:22.957Z,26.32
2018-07-14T12:57:32.616Z,26.29
2018-07-14T12:58:42.292Z,26.28
2018-07-14T12:59:51.188Z,26.35
2018-07-14T13:01:00.388Z,26.3
2018-07-14T13:02:10.242Z,26.33
2018-07-14T13:03:19.660Z,26.33
2018-07-14T13:04:28.819Z,26.3
2018-07-14T13:05:38.251Z,26.28
2018-07-14T13:06:48.197Z,26.28
2018-07-14T13:07:57.628Z,26.33
2018-07-14T13:09:06.507Z,26.33
2018-07-14T13:10:16.187Z,26.37
2018-07-14T13:11:25.874Z,26.33
2018-07-14T13:12:35.799Z,26.37
2018-07-14T13:13:45.501Z,26.37
2018-07-14T13:14:54.900Z,26.37
2018-07-14T13:16:04.353Z,26.4
2018-07-14T13:17:14.262Z,26.36
2018-07-14T13:18:24.104Z,26.36
2018-07-14T13:19:33.019Z,26.35
2018-07-14T13:20:42.175Z,26.36
2018-07-14T13:21:51.595Z,26.43
2018-07-14T13:23:01.043Z,26.47
2018-07-14T13:24:10.504Z,26.43
2018-07-14T13:25:19.400Z,26.44
2018-07-14T13:26:28.878Z,26.4
2018-07-14T13:27:38.300Z,26.44
2018-07-14T13:28:47.732Z,26.45
2018-07-14T13:29:57.410Z,26.4
2018-07-14T13:31:06.884Z,26.43
2018-07-14T13:32:16.300Z,26.43
2018-07-14T13:33:26.231Z,26.45
2018-07-14T13:34:35.632Z,26.48
2018-07-14T13:35:44.532Z,26.43
2018-07-14T13:36:54.046Z,26.43
2018-07-14T13:38:03.710Z,26.48
2018-07-14T13:39:12.807Z,26.4
2018-07-14T13:40:21.973Z,26.43
2018-07-14T13:41:31.129Z,26.5
2018-07-14T13:42:40.561Z,26.5
2018-07-14T13:43:50.233Z,26.52
2018-07-14T13:44:59.660Z,26.48
2018-07-14T13:46:08.810Z,26.44
2018-07-14T13:47:18.484Z,26.45
2018-07-14T13:48:27.631Z,26.44
2018-07-14T13:49:37.057Z,26.43
2018-07-14T13:50:46.211Z,26.48
2018-07-14T13:51:55.358Z,26.45
2018-07-14T13:53:04.269Z,26.45
2018-07-14T13:54:13.680Z,26.51
2018-07-14T13:55:23.108Z,26.5
2018-07-14T13:56:32.792Z,26.45
2018-07-14T13:57:42.210Z,26.48
2018-07-14T13:58:51.636Z,26.52
2018-07-14T14:00:01.041Z,26.48
2018-07-14T14:01:10.723Z,26.43
2018-07-14T14:02:20.128Z,26.54
2018-07-14T14:03:29.808Z,26.54
2018-07-14T14:04:39.069Z,26.55
2018-07-14T14:05:48.838Z,26.52
2018-07-14T14:06:58.507Z,26.5
2018-07-14T14:08:07.931Z,26.5
2018-07-14T14:09:17.341Z,26.51
2018-07-14T14:10:27.274Z,26.52
2018-07-14T14:11:36.422Z,26.54
2018-07-14T14:12:45.576Z,26.5
2018-07-14T14:13:55.247Z,26.52
2018-07-14T14:15:04.434Z,26.54
2018-07-14T14:16:13.598Z,26.5
2018-07-14T14:17:22.762Z,26.6
2018-07-14T14:18:32.705Z,26.57
2018-07-14T14:19:42.132Z,26.6
2018-07-14T14:20:51.051Z,26.52
2018-07-14T14:22:00.220Z,26.55
2018-07-14T14:23:09.888Z,26.5
2018-07-14T14:24:19.569Z,26.54
2018-07-14T14:25:29.265Z,26.5
2018-07-14T14:26:38.705Z,26.54
2018-07-14T14:27:48.126Z,26.6
2018-07-14T14:28:57.530Z,26.54
2018-07-14T14:30:06.975Z,26.6
2018-07-14T14:31:15.871Z,26.58
2018-07-14T14:32:25.546Z,26.62
2018-07-14T14:33:34.702Z,26.58
2018-07-14T14:34:43.854Z,26.52
2018-07-14T14:35:53.021Z,26.52
2018-07-14T14:37:01.940Z,26.54
2018-07-14T14:38:10.868Z,26.57
2018-07-14T14:39:20.288Z,26.52
2018-07-14T14:40:28.979Z,26.6
2018-07-14T14:41:38.423Z,26.58
2018-07-14T14:42:47.577Z,26.58
2018-07-14T14:43:56.495Z,26.57
2018-07-14T14:45:06.194Z,26.54
2018-07-14T14:46:15.874Z,26.54
2018-07-14T14:47:25.296Z,26.54
2018-07-14T14:48:34.461Z,26.57
2018-07-14T14:49:44.139Z,26.58
2018-07-14T14:50:53.299Z,26.62
2018-07-14T14:52:02.462Z,26.58
2018-07-14T14:53:12.137Z,26.65
2018-07-14T14:54:21.565Z,26.62
2018-07-14T14:55:30.974Z,26.57
2018-07-14T14:56:40.151Z,26.57
2018-07-14T14:57:49.733Z,26.6
2018-07-14T14:58:59.140Z,26.58